sensor_id;sensor_type;location;lat;lon;timestamp;temperature;humidity
3232;DHT22;1628;48.884;9.210;2023-01-01T00:01:54;14.70;99.90
3232;DHT22;1628;48.884;9.210;2023-01-01T00:04:22;14.70;99.90
3232;DHT22;1628;48.884;9.210;2023-01-01T00:06:49;14.60;99.90
3232;DHT22;1628;48.884;9.210;2023-01-01T00:09:15;14.60;99.90
3232;DHT22;1628;48.884;9.210;2023-01-01T00:11:59;14.60;99.90
3232;DHT22;1628;48.884;9.210;2023-01-01T00:14:26;14.50;99.90
3232;DHT22;1628;48.884;9.210;2023-01-01T00:16:53;14.50;99.90
3232;DHT22;1628;48.884;9.210;2023-01-01T00:19:22;14.40;99.90
3232;DHT22;1628;48.884;9.210;2023-01-01T00:21:49;14.30;99.90
3232;DHT22;1628;48.884;9.210;2023-01-01T00:24:16;14.30;99.90
3232;DHT22;1628;48.884;9.210;2023-01-01T00:26:43;14.30;99.90
3232;DHT22;1628;48.884;9.210;2023-01-01T00:29:10;14.30;99.90
3232;DHT22;1628;48.884;9.210;2023-01-01T00:31:37;14.30;99.90
3232;DHT22;1628;48.884;9.210;2023-01-01T00:34:05;14.30;99.90
3232;DHT22;1628;48.884;9.210;2023-01-01T00:36:33;14.40;99.90
3232;DHT22;1628;48.884;9.210;2023-01-01T00:39:01;14.40;99.90
3232;DHT22;1628;48.884;9.210;2023-01-01T00:41:29;14.50;99.90
3232;DHT22;1628;48.884;9.210;2023-01-01T00:43:57;14.60;99.90
3232;DHT22;1628;48.884;9.210;2023-01-01T00:46:24;14.60;99.90
3232;DHT22;1628;48.884;9.210;2023-01-01T00:48:51;14.70;99.90
3232;DHT22;1628;48.884;9.210;2023-01-01T00:51:18;14.70;99.90
3232;DHT22;1628;48.884;9.210;2023-01-01T00:53:46;14.70;99.90
3232;DHT22;1628;48.884;9.210;2023-01-01T00:56:13;14.80;99.90
3232;DHT22;1628;48.884;9.210;2023-01-01T00:58:40;14.80;99.90
3232;DHT22;1628;48.884;9.210;2023-01-01T01:01:06;14.90;99.90
3232;DHT22;1628;48.884;9.210;2023-01-01T01:03:33;14.90;99.90
3232;DHT22;1628;48.884;9.210;2023-01-01T01:06:08;14.90;99.90
3232;DHT22;1628;48.884;9.210;2023-01-01T01:08:38;14.90;99.90
3232;DHT22;1628;48.884;9.210;2023-01-01T01:11:08;15.00;99.90
3232;DHT22;1628;48.884;9.210;2023-01-01T01:13:35;15.00;99.90
3232;DHT22;1628;48.884;9.210;2023-01-01T01:16:07;15.10;99.90
3232;DHT22;1628;48.884;9.210;2023-01-01T01:18:34;15.10;99.90
3232;DHT22;1628;48.884;9.210;2023-01-01T01:21:00;15.20;99.90
3232;DHT22;1628;48.884;9.210;2023-01-01T01:23:27;15.20;99.90
3232;DHT22;1628;48.884;9.210;2023-01-01T01:25:53;15.30;99.90
3232;DHT22;1628;48.884;9.210;2023-01-01T01:28:21;15.30;99.90
3232;DHT22;1628;48.884;9.210;2023-01-01T01:30:48;15.30;99.90
3232;DHT22;1628;48.884;9.210;2023-01-01T01:33:15;15.30;99.90
3232;DHT22;1628;48.884;9.210;2023-01-01T01:35:41;15.20;99.90
3232;DHT22;1628;48.884;9.210;2023-01-01T01:38:09;15.20;99.90
3232;DHT22;1628;48.884;9.210;2023-01-01T01:40:36;15.20;99.90
3232;DHT22;1628;48.884;9.210;2023-01-01T01:43:11;15.20;99.90
3232;DHT22;1628;48.884;9.210;2023-01-01T01:45:39;15.30;99.90
3232;DHT22;1628;48.884;9.210;2023-01-01T01:48:07;15.20;99.90
3232;DHT22;1628;48.884;9.210;2023-01-01T01:50:37;15.20;99.90
3232;DHT22;1628;48.884;9.210;2023-01-01T01:53:09;15.20;99.90
3232;DHT22;1628;48.884;9.210;2023-01-01T01:55:41;15.10;99.90
3232;DHT22;1628;48.884;9.210;2023-01-01T01:58:10;15.10;99.90
3232;DHT22;1628;48.884;9.210;2023-01-01T02:00:39;15.10;99.90
3232;DHT22;1628;48.884;9.210;2023-01-01T02:03:08;15.00;99.90
3232;DHT22;1628;48.884;9.210;2023-01-01T02:05:35;15.00;99.90
3232;DHT22;1628;48.884;9.210;2023-01-01T02:08:04;15.00;99.90
3232;DHT22;1628;48.884;9.210;2023-01-01T02:10:31;14.90;99.90
3232;DHT22;1628;48.884;9.210;2023-01-01T02:12:58;14.90;99.90
3232;DHT22;1628;48.884;9.210;2023-01-01T02:15:30;14.80;99.90
3232;DHT22;1628;48.884;9.210;2023-01-01T02:18:02;14.80;99.90
3232;DHT22;1628;48.884;9.210;2023-01-01T02:20:38;14.80;99.90
3232;DHT22;1628;48.884;9.210;2023-01-01T02:23:20;14.80;99.90
3232;DHT22;1628;48.884;9.210;2023-01-01T02:25:59;14.80;99.90
3232;DHT22;1628;48.884;9.210;2023-01-01T02:28:40;14.80;99.90
3232;DHT22;1628;48.884;9.210;2023-01-01T02:31:10;14.70;99.90
3232;DHT22;1628;48.884;9.210;2023-01-01T02:33:41;14.70;99.90
3232;DHT22;1628;48.884;9.210;2023-01-01T02:36:10;14.70;99.90
3232;DHT22;1628;48.884;9.210;2023-01-01T02:38:39;14.80;99.90
3232;DHT22;1628;48.884;9.210;2023-01-01T02:41:08;14.80;99.90
3232;DHT22;1628;48.884;9.210;2023-01-01T02:43:38;14.80;99.90
3232;DHT22;1628;48.884;9.210;2023-01-01T02:46:06;14.80;99.90
3232;DHT22;1628;48.884;9.210;2023-01-01T02:48:37;14.90;99.90
3232;DHT22;1628;48.884;9.210;2023-01-01T02:51:11;14.90;99.90
3232;DHT22;1628;48.884;9.210;2023-01-01T02:53:43;14.90;99.90
3232;DHT22;1628;48.884;9.210;2023-01-01T02:56:17;14.90;99.90
3232;DHT22;1628;48.884;9.210;2023-01-01T02:58:54;14.80;99.90
3232;DHT22;1628;48.884;9.210;2023-01-01T03:01:45;14.70;99.90
3232;DHT22;1628;48.884;9.210;2023-01-01T03:04:23;14.60;99.90
3232;DHT22;1628;48.884;9.210;2023-01-01T03:06:54;14.50;99.90
3232;DHT22;1628;48.884;9.210;2023-01-01T03:09:34;14.50;99.90
3232;DHT22;1628;48.884;9.210;2023-01-01T03:12:08;14.50;99.90
3232;DHT22;1628;48.884;9.210;2023-01-01T03:14:44;14.40;99.90
3232;DHT22;1628;48.884;9.210;2023-01-01T03:17:20;14.40;99.90
3232;DHT22;1628;48.884;9.210;2023-01-01T03:19:53;14.40;99.90
3232;DHT22;1628;48.884;9.210;2023-01-01T03:22:23;14.40;99.90
3232;DHT22;1628;48.884;9.210;2023-01-01T03:24:55;14.40;99.90
3232;DHT22;1628;48.884;9.210;2023-01-01T03:27:27;14.40;99.90
3232;DHT22;1628;48.884;9.210;2023-01-01T03:29:59;14.40;99.90
3232;DHT22;1628;48.884;9.210;2023-01-01T03:32:31;14.50;99.90
3232;DHT22;1628;48.884;9.210;2023-01-01T03:35:15;14.50;99.90
3232;DHT22;1628;48.884;9.210;2023-01-01T03:37:44;14.50;99.90
3232;DHT22;1628;48.884;9.210;2023-01-01T03:40:15;14.40;99.90
3232;DHT22;1628;48.884;9.210;2023-01-01T03:42:46;14.40;99.90
3232;DHT22;1628;48.884;9.210;2023-01-01T03:45:20;14.50;99.90
3232;DHT22;1628;48.884;9.210;2023-01-01T03:47:48;14.50;99.90
3232;DHT22;1628;48.884;9.210;2023-01-01T03:50:15;14.60;99.90
3232;DHT22;1628;48.884;9.210;2023-01-01T03:52:46;14.60;99.90
3232;DHT22;1628;48.884;9.210;2023-01-01T03:55:20;14.60;99.90
3232;DHT22;1628;48.884;9.210;2023-01-01T03:57:54;14.60;99.90
3232;DHT22;1628;48.884;9.210;2023-01-01T04:00:27;14.70;99.90
3232;DHT22;1628;48.884;9.210;2023-01-01T04:02:59;14.70;99.90
3232;DHT22;1628;48.884;9.210;2023-01-01T04:05:28;14.70;99.90
3232;DHT22;1628;48.884;9.210;2023-01-01T04:07:55;14.80;99.90
3232;DHT22;1628;48.884;9.210;2023-01-01T04:10:23;14.80;99.90
3232;DHT22;1628;48.884;9.210;2023-01-01T04:12:52;14.80;99.90
3232;DHT22;1628;48.884;9.210;2023-01-01T04:15:21;14.80;99.90
3232;DHT22;1628;48.884;9.210;2023-01-01T04:17:50;14.90;99.90
3232;DHT22;1628;48.884;9.210;2023-01-01T04:20:17;14.80;99.90
3232;DHT22;1628;48.884;9.210;2023-01-01T04:22:44;14.90;99.90
3232;DHT22;1628;48.884;9.210;2023-01-01T04:25:12;14.90;99.90
3232;DHT22;1628;48.884;9.210;2023-01-01T04:27:39;14.90;99.90
3232;DHT22;1628;48.884;9.210;2023-01-01T04:30:08;14.90;99.90
3232;DHT22;1628;48.884;9.210;2023-01-01T04:32:35;14.90;99.90
3232;DHT22;1628;48.884;9.210;2023-01-01T04:35:04;14.90;99.90
3232;DHT22;1628;48.884;9.210;2023-01-01T04:37:31;14.90;99.90
3232;DHT22;1628;48.884;9.210;2023-01-01T04:40:00;14.90;99.90
3232;DHT22;1628;48.884;9.210;2023-01-01T04:42:27;14.90;99.90
3232;DHT22;1628;48.884;9.210;2023-01-01T04:44:53;14.90;99.90
3232;DHT22;1628;48.884;9.210;2023-01-01T04:47:20;14.90;99.90
3232;DHT22;1628;48.884;9.210;2023-01-01T04:49:47;14.90;99.90
3232;DHT22;1628;48.884;9.210;2023-01-01T04:52:15;14.90;99.90
3232;DHT22;1628;48.884;9.210;2023-01-01T04:54:41;14.90;99.90
3232;DHT22;1628;48.884;9.210;2023-01-01T04:57:08;15.00;99.90
3232;DHT22;1628;48.884;9.210;2023-01-01T04:59:35;15.00;99.90
3232;DHT22;1628;48.884;9.210;2023-01-01T05:02:02;15.00;99.90
3232;DHT22;1628;48.884;9.210;2023-01-01T05:04:28;15.00;99.90
3232;DHT22;1628;48.884;9.210;2023-01-01T05:06:55;14.90;99.90
3232;DHT22;1628;48.884;9.210;2023-01-01T05:09:23;14.90;99.90
3232;DHT22;1628;48.884;9.210;2023-01-01T05:11:49;14.90;99.90
3232;DHT22;1628;48.884;9.210;2023-01-01T05:14:16;14.90;99.90
3232;DHT22;1628;48.884;9.210;2023-01-01T05:16:43;14.90;99.90
3232;DHT22;1628;48.884;9.210;2023-01-01T05:19:09;14.90;99.90
3232;DHT22;1628;48.884;9.210;2023-01-01T05:21:37;14.90;99.90
3232;DHT22;1628;48.884;9.210;2023-01-01T05:24:06;14.90;99.90
3232;DHT22;1628;48.884;9.210;2023-01-01T05:26:36;14.90;99.90
3232;DHT22;1628;48.884;9.210;2023-01-01T05:29:04;14.80;99.90
3232;DHT22;1628;48.884;9.210;2023-01-01T05:31:32;14.90;99.90
3232;DHT22;1628;48.884;9.210;2023-01-01T05:33:59;14.90;99.90
3232;DHT22;1628;48.884;9.210;2023-01-01T05:36:28;14.90;99.90
3232;DHT22;1628;48.884;9.210;2023-01-01T05:38:55;14.90;99.90
3232;DHT22;1628;48.884;9.210;2023-01-01T05:41:22;14.90;99.90
3232;DHT22;1628;48.884;9.210;2023-01-01T05:43:51;14.80;99.90
3232;DHT22;1628;48.884;9.210;2023-01-01T05:46:20;14.80;99.90
3232;DHT22;1628;48.884;9.210;2023-01-01T05:48:47;14.80;99.90
3232;DHT22;1628;48.884;9.210;2023-01-01T05:51:16;14.80;99.90
3232;DHT22;1628;48.884;9.210;2023-01-01T05:53:43;14.80;99.90
3232;DHT22;1628;48.884;9.210;2023-01-01T05:56:10;14.90;99.90
3232;DHT22;1628;48.884;9.210;2023-01-01T05:58:38;14.90;99.90
3232;DHT22;1628;48.884;9.210;2023-01-01T06:01:07;14.90;99.90
3232;DHT22;1628;48.884;9.210;2023-01-01T06:03:35;14.90;99.90
3232;DHT22;1628;48.884;9.210;2023-01-01T06:06:05;14.90;99.90
3232;DHT22;1628;48.884;9.210;2023-01-01T06:08:32;14.90;99.90
3232;DHT22;1628;48.884;9.210;2023-01-01T06:11:00;14.90;99.90
3232;DHT22;1628;48.884;9.210;2023-01-01T06:13:27;14.80;99.90
3232;DHT22;1628;48.884;9.210;2023-01-01T06:15:54;14.80;99.90
3232;DHT22;1628;48.884;9.210;2023-01-01T06:18:23;14.80;99.90
3232;DHT22;1628;48.884;9.210;2023-01-01T06:20:50;14.70;99.90
3232;DHT22;1628;48.884;9.210;2023-01-01T06:23:17;14.70;99.90
3232;DHT22;1628;48.884;9.210;2023-01-01T06:25:43;14.70;99.90
3232;DHT22;1628;48.884;9.210;2023-01-01T06:28:10;14.70;99.90
3232;DHT22;1628;48.884;9.210;2023-01-01T06:30:37;14.60;99.90
3232;DHT22;1628;48.884;9.210;2023-01-01T06:33:04;14.60;99.90
3232;DHT22;1628;48.884;9.210;2023-01-01T06:35:32;14.60;99.90
3232;DHT22;1628;48.884;9.210;2023-01-01T06:37:59;14.60;99.90
3232;DHT22;1628;48.884;9.210;2023-01-01T06:40:25;14.50;99.90
3232;DHT22;1628;48.884;9.210;2023-01-01T06:42:52;14.50;99.90
3232;DHT22;1628;48.884;9.210;2023-01-01T06:45:19;14.50;99.90
3232;DHT22;1628;48.884;9.210;2023-01-01T06:47:45;14.40;99.90
3232;DHT22;1628;48.884;9.210;2023-01-01T06:50:12;14.40;99.90
3232;DHT22;1628;48.884;9.210;2023-01-01T06:52:40;14.30;99.90
3232;DHT22;1628;48.884;9.210;2023-01-01T06:55:07;14.20;99.90
3232;DHT22;1628;48.884;9.210;2023-01-01T06:57:34;14.20;99.90
3232;DHT22;1628;48.884;9.210;2023-01-01T07:00:00;14.20;99.90
3232;DHT22;1628;48.884;9.210;2023-01-01T07:02:27;14.20;99.90
3232;DHT22;1628;48.884;9.210;2023-01-01T07:04:54;14.20;99.90
3232;DHT22;1628;48.884;9.210;2023-01-01T07:07:20;14.10;99.90
3232;DHT22;1628;48.884;9.210;2023-01-01T07:09:48;14.10;99.90
3232;DHT22;1628;48.884;9.210;2023-01-01T07:12:15;14.20;99.90
3232;DHT22;1628;48.884;9.210;2023-01-01T07:14:42;14.20;99.90
3232;DHT22;1628;48.884;9.210;2023-01-01T07:17:08;14.20;99.90
3232;DHT22;1628;48.884;9.210;2023-01-01T07:19:35;14.20;99.90
3232;DHT22;1628;48.884;9.210;2023-01-01T07:22:01;14.20;99.90
3232;DHT22;1628;48.884;9.210;2023-01-01T07:24:28;14.30;99.90
3232;DHT22;1628;48.884;9.210;2023-01-01T07:26:56;14.40;99.90
3232;DHT22;1628;48.884;9.210;2023-01-01T07:29:23;14.40;99.90
3232;DHT22;1628;48.884;9.210;2023-01-01T07:31:49;14.40;99.90
3232;DHT22;1628;48.884;9.210;2023-01-01T07:34:17;14.50;99.90
3232;DHT22;1628;48.884;9.210;2023-01-01T07:36:44;14.40;99.90
3232;DHT22;1628;48.884;9.210;2023-01-01T07:39:11;14.50;99.90
3232;DHT22;1628;48.884;9.210;2023-01-01T07:41:37;14.50;99.90
3232;DHT22;1628;48.884;9.210;2023-01-01T07:44:05;14.60;99.90
3232;DHT22;1628;48.884;9.210;2023-01-01T07:46:34;14.70;99.90
3232;DHT22;1628;48.884;9.210;2023-01-01T07:49:01;14.70;99.90
3232;DHT22;1628;48.884;9.210;2023-01-01T07:51:28;14.80;99.90
3232;DHT22;1628;48.884;9.210;2023-01-01T07:53:54;14.90;99.90
3232;DHT22;1628;48.884;9.210;2023-01-01T07:56:21;14.90;99.90
3232;DHT22;1628;48.884;9.210;2023-01-01T07:58:48;15.00;99.90
3232;DHT22;1628;48.884;9.210;2023-01-01T08:01:16;15.00;99.90
3232;DHT22;1628;48.884;9.210;2023-01-01T08:03:43;15.20;99.90
3232;DHT22;1628;48.884;9.210;2023-01-01T08:06:11;15.40;99.90
3232;DHT22;1628;48.884;9.210;2023-01-01T08:08:39;15.70;99.90
3232;DHT22;1628;48.884;9.210;2023-01-01T08:11:06;15.90;99.90
3232;DHT22;1628;48.884;9.210;2023-01-01T08:13:33;15.80;99.90
3232;DHT22;1628;48.884;9.210;2023-01-01T08:15:59;15.80;99.90
3232;DHT22;1628;48.884;9.210;2023-01-01T08:18:27;15.70;99.90
3232;DHT22;1628;48.884;9.210;2023-01-01T08:20:54;15.60;99.90
3232;DHT22;1628;48.884;9.210;2023-01-01T08:23:21;15.50;99.90
3232;DHT22;1628;48.884;9.210;2023-01-01T08:25:48;15.40;99.90
3232;DHT22;1628;48.884;9.210;2023-01-01T08:28:15;15.50;99.90
3232;DHT22;1628;48.884;9.210;2023-01-01T18:21:17;12.30;99.90
3232;DHT22;1628;48.884;9.210;2023-01-01T18:23:47;12.40;99.90
3232;DHT22;1628;48.884;9.210;2023-01-01T18:26:14;12.60;99.90
3232;DHT22;1628;48.884;9.210;2023-01-01T18:28:41;12.90;99.90
3232;DHT22;1628;48.884;9.210;2023-01-01T18:31:10;13.30;99.90
3232;DHT22;1628;48.884;9.210;2023-01-01T18:33:37;13.50;99.90
3232;DHT22;1628;48.884;9.210;2023-01-01T18:36:05;13.70;99.90
3232;DHT22;1628;48.884;9.210;2023-01-01T18:38:35;13.90;99.90
3232;DHT22;1628;48.884;9.210;2023-01-01T18:41:18;14.00;99.90
3232;DHT22;1628;48.884;9.210;2023-01-01T18:43:48;14.10;99.90
3232;DHT22;1628;48.884;9.210;2023-01-01T18:46:15;14.20;99.90
3232;DHT22;1628;48.884;9.210;2023-01-01T18:48:41;14.30;99.90
3232;DHT22;1628;48.884;9.210;2023-01-01T18:51:13;14.30;99.90
3232;DHT22;1628;48.884;9.210;2023-01-01T18:53:41;14.30;99.90
3232;DHT22;1628;48.884;9.210;2023-01-01T18:56:10;14.30;99.90
3232;DHT22;1628;48.884;9.210;2023-01-01T18:58:39;14.30;99.90
3232;DHT22;1628;48.884;9.210;2023-01-01T19:01:12;14.40;99.90
3232;DHT22;1628;48.884;9.210;2023-01-01T19:03:40;14.30;99.90
3232;DHT22;1628;48.884;9.210;2023-01-01T19:06:19;14.30;99.90
3232;DHT22;1628;48.884;9.210;2023-01-01T19:08:48;14.20;99.90
3232;DHT22;1628;48.884;9.210;2023-01-01T19:11:19;14.10;99.90
3232;DHT22;1628;48.884;9.210;2023-01-01T19:13:46;14.10;99.90
3232;DHT22;1628;48.884;9.210;2023-01-01T19:16:18;13.90;99.90
3232;DHT22;1628;48.884;9.210;2023-01-01T19:18:47;13.80;99.90
3232;DHT22;1628;48.884;9.210;2023-01-01T19:21:19;13.80;99.90
3232;DHT22;1628;48.884;9.210;2023-01-01T19:23:49;13.70;99.90
3232;DHT22;1628;48.884;9.210;2023-01-01T19:26:22;13.70;99.90
3232;DHT22;1628;48.884;9.210;2023-01-01T19:28:51;13.70;99.90
3232;DHT22;1628;48.884;9.210;2023-01-01T19:31:19;13.60;99.90
3232;DHT22;1628;48.884;9.210;2023-01-01T19:33:46;13.50;99.90
3232;DHT22;1628;48.884;9.210;2023-01-01T19:36:12;13.40;99.90
3232;DHT22;1628;48.884;9.210;2023-01-01T19:38:39;13.40;99.90
3232;DHT22;1628;48.884;9.210;2023-01-01T19:41:07;13.40;99.90
3232;DHT22;1628;48.884;9.210;2023-01-01T19:43:34;13.40;99.90
3232;DHT22;1628;48.884;9.210;2023-01-01T19:46:01;13.40;99.90
3232;DHT22;1628;48.884;9.210;2023-01-01T19:48:27;13.50;99.90
3232;DHT22;1628;48.884;9.210;2023-01-01T19:50:54;13.50;99.90
3232;DHT22;1628;48.884;9.210;2023-01-01T19:53:21;13.60;99.90
3232;DHT22;1628;48.884;9.210;2023-01-01T19:55:48;13.70;99.90
3232;DHT22;1628;48.884;9.210;2023-01-01T19:58:16;13.70;99.90
3232;DHT22;1628;48.884;9.210;2023-01-01T20:00:44;13.80;99.90
3232;DHT22;1628;48.884;9.210;2023-01-01T20:03:10;13.80;99.90
3232;DHT22;1628;48.884;9.210;2023-01-01T20:05:37;13.80;99.90
3232;DHT22;1628;48.884;9.210;2023-01-01T20:08:04;13.90;99.90
3232;DHT22;1628;48.884;9.210;2023-01-01T20:10:31;13.90;99.90
3232;DHT22;1628;48.884;9.210;2023-01-01T20:12:57;14.00;99.90
3232;DHT22;1628;48.884;9.210;2023-01-01T20:15:25;14.10;99.90
3232;DHT22;1628;48.884;9.210;2023-01-01T20:17:52;14.20;99.90
3232;DHT22;1628;48.884;9.210;2023-01-01T20:20:19;14.20;99.90
3232;DHT22;1628;48.884;9.210;2023-01-01T20:22:45;14.20;99.90
3232;DHT22;1628;48.884;9.210;2023-01-01T20:25:12;14.30;99.90
3232;DHT22;1628;48.884;9.210;2023-01-01T20:27:39;14.30;99.90
3232;DHT22;1628;48.884;9.210;2023-01-01T20:30:27;14.30;99.90
3232;DHT22;1628;48.884;9.210;2023-01-01T20:32:53;14.20;99.90
3232;DHT22;1628;48.884;9.210;2023-01-01T20:35:20;14.20;99.90
3232;DHT22;1628;48.884;9.210;2023-01-01T20:38:01;14.10;99.90
3232;DHT22;1628;48.884;9.210;2023-01-01T20:40:27;14.00;99.90
3232;DHT22;1628;48.884;9.210;2023-01-01T20:42:54;14.10;99.90
3232;DHT22;1628;48.884;9.210;2023-01-01T20:45:20;14.10;99.90
3232;DHT22;1628;48.884;9.210;2023-01-01T20:47:48;14.10;99.90
3232;DHT22;1628;48.884;9.210;2023-01-01T20:50:15;14.20;99.90
3232;DHT22;1628;48.884;9.210;2023-01-01T20:52:42;14.30;99.90
3232;DHT22;1628;48.884;9.210;2023-01-01T20:55:09;14.40;99.90
3232;DHT22;1628;48.884;9.210;2023-01-01T20:57:35;14.50;99.90
3232;DHT22;1628;48.884;9.210;2023-01-01T21:00:03;14.50;99.90
3232;DHT22;1628;48.884;9.210;2023-01-01T21:02:31;14.60;99.90
3232;DHT22;1628;48.884;9.210;2023-01-01T21:04:59;14.60;99.90
3232;DHT22;1628;48.884;9.210;2023-01-01T21:07:26;14.60;99.90
3232;DHT22;1628;48.884;9.210;2023-01-01T21:09:52;14.70;99.90
3232;DHT22;1628;48.884;9.210;2023-01-01T21:12:19;14.70;99.90
3232;DHT22;1628;48.884;9.210;2023-01-01T21:14:46;14.70;99.90
3232;DHT22;1628;48.884;9.210;2023-01-01T21:17:18;14.60;99.90
3232;DHT22;1628;48.884;9.210;2023-01-01T21:19:46;14.60;99.90
3232;DHT22;1628;48.884;9.210;2023-01-01T21:22:14;14.60;99.90
3232;DHT22;1628;48.884;9.210;2023-01-01T21:24:41;14.60;99.90
3232;DHT22;1628;48.884;9.210;2023-01-01T21:27:12;14.60;99.90
3232;DHT22;1628;48.884;9.210;2023-01-01T21:29:42;14.60;99.90
3232;DHT22;1628;48.884;9.210;2023-01-01T21:32:15;14.70;99.90
3232;DHT22;1628;48.884;9.210;2023-01-01T21:34:44;14.70;99.90
3232;DHT22;1628;48.884;9.210;2023-01-01T21:37:21;14.70;99.90
3232;DHT22;1628;48.884;9.210;2023-01-01T21:40:28;14.70;99.90
3232;DHT22;1628;48.884;9.210;2023-01-01T21:43:01;14.60;99.90
3232;DHT22;1628;48.884;9.210;2023-01-01T21:45:34;14.50;99.90
3232;DHT22;1628;48.884;9.210;2023-01-01T21:48:09;14.50;99.90
3232;DHT22;1628;48.884;9.210;2023-01-01T21:50:39;14.40;99.90
3232;DHT22;1628;48.884;9.210;2023-01-01T21:53:14;14.40;99.90
3232;DHT22;1628;48.884;9.210;2023-01-01T21:55:44;14.40;99.90
3232;DHT22;1628;48.884;9.210;2023-01-01T21:58:22;14.40;99.90
3232;DHT22;1628;48.884;9.210;2023-01-01T22:01:18;14.40;99.90
3232;DHT22;1628;48.884;9.210;2023-01-01T22:03:47;14.40;99.90
3232;DHT22;1628;48.884;9.210;2023-01-01T22:06:15;14.40;99.90
3232;DHT22;1628;48.884;9.210;2023-01-01T22:08:45;14.50;99.90
3232;DHT22;1628;48.884;9.210;2023-01-01T22:11:19;14.50;99.90
3232;DHT22;1628;48.884;9.210;2023-01-01T22:13:50;14.40;99.90
3232;DHT22;1628;48.884;9.210;2023-01-01T22:16:18;14.40;99.90
3232;DHT22;1628;48.884;9.210;2023-01-01T22:18:46;14.40;99.90
3232;DHT22;1628;48.884;9.210;2023-01-01T22:21:16;14.40;99.90
3232;DHT22;1628;48.884;9.210;2023-01-01T22:23:45;14.40;99.90
3232;DHT22;1628;48.884;9.210;2023-01-01T22:26:21;14.40;99.90
3232;DHT22;1628;48.884;9.210;2023-01-01T22:28:50;14.40;99.90
3232;DHT22;1628;48.884;9.210;2023-01-01T22:31:19;14.50;99.90
3232;DHT22;1628;48.884;9.210;2023-01-01T22:33:48;14.60;99.90
3232;DHT22;1628;48.884;9.210;2023-01-01T22:36:19;14.60;99.90
